createdAt,value
2024-05-09T00:01:57.069Z,11.18
2024-05-09T00:06:58.763Z,10.93
2024-05-09T00:12:00.577Z,10.59
2024-05-09T00:17:02.574Z,10.34
2024-05-09T00:22:04.394Z,10.12
2024-05-09T00:27:06.067Z,9.93
2024-05-09T00:32:08.114Z,9.73
2024-05-09T00:37:09.844Z,9.66
2024-05-09T00:42:11.550Z,9.87
2024-05-09T00:47:13.406Z,9.99
2024-05-09T00:52:15.332Z,10.02
2024-05-09T00:57:17.513Z,10.02
2024-05-09T01:02:20.640Z,10.02
2024-05-09T01:07:22.395Z,10.05
2024-05-09T01:12:24.865Z,10.01
2024-05-09T01:17:27.250Z,9.98
2024-05-09T01:22:30.946Z,9.99
2024-05-09T01:27:32.591Z,9.98
2024-05-09T01:32:34.419Z,9.96
2024-05-09T01:37:36.318Z,9.94
2024-05-09T01:42:38.097Z,9.93
2024-05-09T01:47:39.863Z,9.91
2024-05-09T01:52:41.679Z,9.89
2024-05-09T01:57:43.354Z,9.84
2024-05-09T02:02:45.638Z,9.77
2024-05-09T02:07:47.499Z,9.71
2024-05-09T02:12:49.197Z,9.64
2024-05-09T02:17:51.543Z,9.55
2024-05-09T02:22:53.549Z,9.47
2024-05-09T02:27:55.296Z,9.36
2024-05-09T02:32:57.162Z,9.29
2024-05-09T02:37:58.942Z,9.20
2024-05-09T02:43:00.749Z,9.13
2024-05-09T02:48:02.980Z,9.08
2024-05-09T02:53:05.092Z,9.03
2024-05-09T02:58:07.728Z,9.02
2024-05-09T03:03:13.075Z,8.98
2024-05-09T03:08:16.782Z,8.95
2024-05-09T03:13:18.490Z,8.91
2024-05-09T03:18:20.245Z,8.89
2024-05-09T03:23:22.065Z,8.88
2024-05-09T03:28:23.864Z,8.88
2024-05-09T03:33:25.965Z,8.92
2024-05-09T03:38:28.081Z,9.12
2024-05-09T03:43:29.837Z,9.27
2024-05-09T03:48:35.360Z,9.37
2024-05-09T03:53:37.210Z,9.44
2024-05-09T03:58:39.314Z,9.50
2024-05-09T04:03:41.221Z,9.55
2024-05-09T04:08:43.081Z,9.60
2024-05-09T04:13:44.931Z,9.66
2024-05-09T04:18:46.860Z,9.75
2024-05-09T04:23:48.823Z,9.85
2024-05-09T04:28:50.686Z,10.00
2024-05-09T04:33:52.429Z,10.12
2024-05-09T04:38:54.236Z,10.25
2024-05-09T04:43:55.934Z,10.40
2024-05-09T04:48:57.813Z,10.57
2024-05-09T04:53:59.531Z,10.77
2024-05-09T04:59:01.368Z,11.00
2024-05-09T05:04:03.180Z,11.20
2024-05-09T05:09:05.076Z,11.37
2024-05-09T05:14:06.801Z,11.57
2024-05-09T05:19:12.687Z,11.73
2024-05-09T05:24:15.928Z,11.93
2024-05-09T05:29:20.189Z,12.12
2024-05-09T05:34:22.499Z,12.33
2024-05-09T05:39:24.231Z,12.53
2024-05-09T05:44:25.930Z,12.72
2024-05-09T05:49:27.774Z,12.86
2024-05-09T05:54:29.558Z,12.88
2024-05-09T05:59:31.328Z,12.60
2024-05-09T06:04:33.204Z,12.46
2024-05-09T06:09:35.000Z,12.38
2024-05-09T06:14:36.713Z,12.36
2024-05-09T06:19:38.488Z,12.39
2024-05-09T06:24:40.196Z,12.43
2024-05-09T06:29:41.919Z,12.52
2024-05-09T06:34:43.885Z,13.02
2024-05-09T06:39:46.455Z,13.51
2024-05-09T06:44:48.154Z,13.64
2024-05-09T06:49:49.874Z,13.49
2024-05-09T06:54:51.555Z,13.50
2024-05-09T06:59:53.320Z,13.57
2024-05-09T07:04:55.175Z,13.67
2024-05-09T07:09:57.003Z,13.77
2024-05-09T07:14:58.714Z,13.87
2024-05-09T07:20:00.425Z,13.98
2024-05-09T07:25:02.611Z,14.08
2024-05-09T07:30:07.093Z,14.20
2024-05-09T07:35:08.937Z,14.22
2024-05-09T07:40:17.675Z,14.29
2024-05-09T07:45:43.322Z,14.43
2024-05-09T07:55:53.162Z,14.69
2024-05-09T08:00:55.216Z,14.86
2024-05-09T08:05:57.159Z,15.02
2024-05-09T08:10:58.803Z,15.19
2024-05-09T08:16:00.859Z,15.31
2024-05-09T08:21:03.149Z,15.48
2024-05-09T08:26:05.400Z,15.62
2024-05-09T08:31:07.544Z,15.75
2024-05-09T08:36:09.647Z,15.92
2024-05-09T08:41:13.892Z,16.08
2024-05-09T08:46:18.442Z,16.19
2024-05-09T08:51:20.226Z,16.37
2024-05-09T08:56:28.217Z,16.56
2024-05-09T09:01:32.018Z,16.70
2024-05-09T09:06:35.210Z,16.82
2024-05-09T09:11:37.083Z,16.95
2024-05-09T09:16:38.818Z,17.17
2024-05-09T09:21:40.535Z,17.36
2024-05-09T09:26:44.978Z,17.56
2024-05-09T09:31:57.063Z,17.76
2024-05-09T09:37:04.527Z,17.92
2024-05-09T09:42:06.386Z,18.02
2024-05-09T09:47:09.342Z,18.15
2024-05-09T09:52:13.389Z,18.25
2024-05-09T09:57:16.081Z,18.24
2024-05-09T10:02:17.924Z,18.17
2024-05-09T10:07:21.419Z,18.35
2024-05-09T10:12:23.898Z,18.80
2024-05-09T10:17:25.764Z,19.14
2024-05-09T10:22:28.483Z,19.37
2024-05-09T10:27:30.926Z,19.46
2024-05-09T10:32:40.705Z,19.52
2024-05-09T10:37:42.860Z,19.46
2024-05-09T10:42:44.769Z,19.56
2024-05-09T10:47:46.668Z,19.67
2024-05-09T10:52:48.461Z,19.72
2024-05-09T10:57:50.149Z,19.92
2024-05-09T11:02:51.984Z,20.02
2024-05-09T11:07:53.912Z,19.98
2024-05-09T11:12:55.688Z,19.93
2024-05-09T11:17:57.522Z,19.87
2024-05-09T11:22:59.298Z,19.96
2024-05-09T11:28:02.157Z,20.16
2024-05-09T11:33:04.203Z,20.34
2024-05-09T11:38:05.896Z,20.64
2024-05-09T11:43:07.765Z,20.73
2024-05-09T11:48:09.672Z,20.75
2024-05-09T11:53:12.304Z,20.76
2024-05-09T11:58:16.932Z,20.76
2024-05-09T12:03:18.929Z,20.77
2024-05-09T12:08:20.736Z,20.85
2024-05-09T12:13:22.478Z,20.94
2024-05-09T12:18:24.531Z,21.00
2024-05-09T12:23:26.306Z,21.00
2024-05-09T12:28:27.997Z,21.01
2024-05-09T12:33:29.830Z,21.02
2024-05-09T12:38:31.642Z,21.12
2024-05-09T12:43:33.421Z,21.08
2024-05-09T12:48:35.439Z,21.23
2024-05-09T12:53:37.454Z,21.37
2024-05-09T12:58:39.226Z,21.40
2024-05-09T13:03:41.057Z,21.48
2024-05-09T13:08:43.059Z,21.47
2024-05-09T13:13:44.804Z,21.50
2024-05-09T13:18:46.529Z,21.72
2024-05-09T13:23:48.365Z,21.70
2024-05-09T13:28:49.988Z,22.00
2024-05-09T13:33:51.978Z,22.18
2024-05-09T13:38:54.486Z,22.39
2024-05-09T13:43:56.418Z,22.58
2024-05-09T13:48:58.351Z,22.56
2024-05-09T13:54:00.028Z,22.66
2024-05-09T13:59:01.750Z,22.64
2024-05-09T14:04:03.720Z,22.42
2024-05-09T14:09:05.531Z,22.29
2024-05-09T14:14:07.220Z,22.09
2024-05-09T14:19:09.417Z,22.04
2024-05-09T14:24:11.147Z,21.94
2024-05-09T14:29:12.838Z,21.77
2024-05-09T14:34:14.760Z,21.64
2024-05-09T14:39:16.671Z,21.67
2024-05-09T14:44:18.373Z,21.65
2024-05-09T14:49:20.264Z,21.51
2024-05-09T14:54:22.110Z,21.47
2024-05-09T14:59:23.823Z,21.47
2024-05-09T15:04:27.549Z,21.44
2024-05-09T15:09:35.327Z,21.46
2024-05-09T15:14:37.605Z,21.32
2024-05-09T15:19:39.519Z,20.96
2024-05-09T15:24:42.198Z,20.42
2024-05-09T15:29:44.015Z,20.04
2024-05-09T15:34:45.975Z,19.85
2024-05-09T15:39:48.172Z,19.78
2024-05-09T15:44:52.802Z,19.78
2024-05-09T15:49:54.804Z,19.79
2024-05-09T15:54:56.714Z,19.82
2024-05-09T15:59:58.667Z,19.75
2024-05-09T16:05:00.893Z,19.79
2024-05-09T16:10:04.156Z,19.81
2024-05-09T16:15:07.523Z,19.84
2024-05-09T16:20:14.981Z,19.87
2024-05-09T16:25:19.862Z,19.85
2024-05-09T16:30:28.270Z,19.81
2024-05-09T16:35:36.879Z,19.69
2024-05-09T16:40:40.879Z,19.58
2024-05-09T16:45:44.686Z,19.41
2024-05-09T16:50:46.709Z,19.25
2024-05-09T16:55:48.599Z,19.11
2024-05-09T17:00:50.728Z,18.99
2024-05-09T17:05:52.921Z,18.86
2024-05-09T17:10:55.395Z,18.78
2024-05-09T17:15:57.296Z,18.68
2024-05-09T17:20:58.951Z,18.51
2024-05-09T17:26:00.758Z,18.32
2024-05-09T17:31:02.455Z,18.06
2024-05-09T17:36:04.460Z,17.79
2024-05-09T17:41:06.197Z,17.52
2024-05-09T17:46:08.104Z,17.25
2024-05-09T17:51:09.929Z,17.03
2024-05-09T17:56:11.741Z,16.80
2024-05-09T18:01:13.814Z,16.58
2024-05-09T18:06:16.495Z,16.36
2024-05-09T18:11:18.414Z,16.15
2024-05-09T18:16:20.724Z,15.94
2024-05-09T18:21:22.511Z,15.73
2024-05-09T18:26:24.178Z,15.52
2024-05-09T18:31:25.947Z,15.32
2024-05-09T18:36:28.116Z,15.13
2024-05-09T18:41:29.751Z,14.95
2024-05-09T18:46:31.848Z,14.76
2024-05-09T18:51:33.633Z,14.58
2024-05-09T18:56:37.316Z,14.40
2024-05-09T19:01:41.866Z,14.25
2024-05-09T19:06:45.315Z,14.09
2024-05-09T19:11:49.641Z,13.92
2024-05-09T19:16:51.408Z,13.77
2024-05-09T19:21:53.669Z,13.62
2024-05-09T19:26:56.322Z,13.49
2024-05-09T19:31:58.073Z,13.36
2024-05-09T19:37:01.284Z,13.22
2024-05-09T19:42:03.199Z,13.08
2024-05-09T19:47:05.013Z,12.92
2024-05-09T19:52:06.711Z,12.78
2024-05-09T19:57:08.451Z,12.66
2024-05-09T20:02:10.309Z,12.52
2024-05-09T20:07:12.781Z,12.39
2024-05-09T20:12:14.674Z,12.26
2024-05-09T20:17:16.444Z,12.13
2024-05-09T20:22:18.337Z,12.01
2024-05-09T20:27:20.095Z,11.91
2024-05-09T20:32:22.062Z,11.85
2024-05-09T20:37:24.606Z,11.80
2024-05-09T20:42:26.366Z,11.73
2024-05-09T20:47:28.265Z,11.68
2024-05-09T20:52:30.144Z,11.63
2024-05-09T20:57:32.174Z,11.56
2024-05-09T21:02:37.898Z,11.49
2024-05-09T21:07:39.967Z,11.40
2024-05-09T21:12:41.788Z,11.30
2024-05-09T21:17:43.679Z,11.51
2024-05-09T21:22:46.443Z,11.82
2024-05-09T21:27:48.712Z,11.99
2024-05-09T21:32:50.667Z,12.09
2024-05-09T21:37:52.333Z,12.13
2024-05-09T21:42:55.101Z,11.98
2024-05-09T21:47:57.226Z,11.56
2024-05-09T21:52:59.093Z,11.34
2024-05-09T21:58:00.995Z,11.53
2024-05-09T22:03:02.882Z,11.70
2024-05-09T22:08:05.002Z,11.79
2024-05-09T22:13:08.334Z,11.84
2024-05-09T22:18:11.314Z,11.87
2024-05-09T22:23:15.432Z,11.87
2024-05-09T22:28:17.375Z,11.87
2024-05-09T22:33:19.308Z,11.72
2024-05-09T22:38:21.019Z,11.29
2024-05-09T22:43:24.649Z,10.96
2024-05-09T22:48:27.114Z,10.71
2024-05-09T22:53:28.853Z,10.51
2024-05-09T22:58:30.900Z,10.33
2024-05-09T23:03:32.921Z,10.26
2024-05-09T23:08:34.849Z,10.54
2024-05-09T23:13:36.898Z,10.72
2024-05-09T23:18:38.786Z,10.82
2024-05-09T23:23:42.000Z,10.87
2024-05-09T23:28:43.688Z,10.90
2024-05-09T23:33:46.860Z,10.92
2024-05-09T23:38:49.081Z,10.88
2024-05-09T23:43:52.470Z,10.84
2024-05-09T23:48:54.277Z,10.80
2024-05-09T23:53:56.018Z,10.76
2024-05-09T23:58:57.643Z,10.72
